Ninde, VA

1:54 PM EST on January 28, 2015 (GMT -0500)
Colonial Beach | Change Station
CLOSE
Current Station
Personal Weather Station
Location: Colonial Beach, VA
Elevation: 13 ft
Nearby Weather Stations

Elev 13 ft 38.26 °N, 76.97 °W | Updated 6 seconds ago

Clear
Clear
38.4 °F
Feels Like 38 °F
N
1.0
Wind Variable Wind from WNW
Gusts 12.0 mph

Today
High -- | Low -- °F
--% Chance of Precip.
Yesterday
High -- | Low -- °F
Precip. -- in
7:16 AM 5:26 PM
Waxing Gibbous, 67% visible
Pressure 30.25 in
Visibility 10.0 miles
Clouds Clear
Windchill 38 °F
Dew Point 18 °F
Humidity 43%
Rainfall 0.00 in
Snow Depth Not available.
UV 3 out of 12
Pollen .30 out of 12
Air Quality Not available.
Flu Activity Not available.
METAR KNYG 281756Z 36017G22KT 10SM CLR 02/M14 A3025 RMK AO2 SLP243 T00221144 10022 21044 58006 $

More Conditions Fewer Conditions

Pressure 30.25 in
Visibility 10.0 miles
Clouds Clear
Windchill 38 °F
Dew Point 18 °F
Humidity 43%
Rainfall 0.00 in
Snow Depth Not available.
UV 3 out of 12
Pollen .30 out of 12
Air Quality Not available.
Flu Activity Not available.
METAR KNYG 281756Z 36017G22KT 10SM CLR 02/M14 A3025 RMK AO2 SLP243 T00221144 10022 21044 58006 $

More Conditions Fewer Conditions

10-Day Weather Forecast

Almanac

Astronomy

Jan. 28, 2015 Rise Set
Actual Time
Civil Twilight
Nautical Twilight
Astronomical Twilight
Moon
Length of Visible Light
Length of Day
Tomorrow will be .
, % of the Moon is Illuminated

Today's Extremes

State Highs State Lows

Community

WunderPhotos

Upload Photos

1,791,241 photos uploaded!

WunderBlogs® & News

Nearby

Air Quality

  Air Quality AQ Index Pollutant
Not available.

Snow Depth

Station Depth Elevation

Earthquake Activity

City Distance Mag. Time & Date
Minimum magnitude displayed is 2.5.

Coastal Water Temperatures

Place Temperature

Nearby Weather Stations